sensor_id;sensor_type;location;lat;lon;timestamp;P1;durP1;ratioP1;P2;durP2;ratioP2
72891;SDS011;61032;50.782;6.818;2023-03-24T00:00:06;1.15;;;0.50;;
72891;SDS011;61032;50.782;6.818;2023-03-24T00:01:12;4.18;;;0.80;;
72891;SDS011;61032;50.782;6.818;2023-03-24T00:02:13;2.03;;;1.20;;
72891;SDS011;61032;50.782;6.818;2023-03-24T00:03:15;1.50;;;0.80;;
72891;SDS011;61032;50.782;6.818;2023-03-24T00:04:16;2.17;;;0.70;;
72891;SDS011;61032;50.782;6.818;2023-03-24T00:05:19;1.40;;;0.50;;
72891;SDS011;61032;50.782;6.818;2023-03-24T00:06:21;1.65;;;0.80;;
72891;SDS011;61032;50.782;6.818;2023-03-24T00:07:21;1.98;;;1.00;;
72891;SDS011;61032;50.782;6.818;2023-03-24T00:08:22;1.70;;;0.82;;
72891;SDS011;61032;50.782;6.818;2023-03-24T00:09:23;1.55;;;0.77;;
72891;SDS011;61032;50.782;6.818;2023-03-24T00:10:23;2.10;;;0.73;;
72891;SDS011;61032;50.782;6.818;2023-03-24T00:11:24;1.38;;;0.70;;
72891;SDS011;61032;50.782;6.818;2023-03-24T00:12:25;1.30;;;0.98;;
72891;SDS011;61032;50.782;6.818;2023-03-24T00:13:26;1.88;;;0.80;;
72891;SDS011;61032;50.782;6.818;2023-03-24T00:14:27;1.70;;;0.80;;
72891;SDS011;61032;50.782;6.818;2023-03-24T00:16:30;1.48;;;0.73;;
72891;SDS011;61032;50.782;6.818;2023-03-24T00:17:33;2.78;;;1.08;;
72891;SDS011;61032;50.782;6.818;2023-03-24T00:18:36;1.67;;;0.98;;
72891;SDS011;61032;50.782;6.818;2023-03-24T00:19:38;2.95;;;1.25;;
72891;SDS011;61032;50.782;6.818;2023-03-24T00:20:39;1.00;;;0.77;;
72891;SDS011;61032;50.782;6.818;2023-03-24T00:21:41;2.25;;;1.27;;
72891;SDS011;61032;50.782;6.818;2023-03-24T00:22:44;2.55;;;1.40;;
72891;SDS011;61032;50.782;6.818;2023-03-24T00:23:47;2.58;;;1.48;;
72891;SDS011;61032;50.782;6.818;2023-03-24T00:24:48;2.03;;;1.20;;
72891;SDS011;61032;50.782;6.818;2023-03-24T00:25:57;1.85;;;0.88;;
72891;SDS011;61032;50.782;6.818;2023-03-24T00:27:01;1.90;;;0.93;;
72891;SDS011;61032;50.782;6.818;2023-03-24T00:28:03;2.13;;;1.08;;
72891;SDS011;61032;50.782;6.818;2023-03-24T00:29:07;2.72;;;1.17;;
72891;SDS011;61032;50.782;6.818;2023-03-24T00:30:10;1.67;;;0.70;;
72891;SDS011;61032;50.782;6.818;2023-03-24T00:31:11;1.77;;;0.82;;
72891;SDS011;61032;50.782;6.818;2023-03-24T00:32:15;1.30;;;0.68;;
72891;SDS011;61032;50.782;6.818;2023-03-24T00:33:16;1.75;;;0.82;;
72891;SDS011;61032;50.782;6.818;2023-03-24T00:34:17;2.45;;;1.00;;
72891;SDS011;61032;50.782;6.818;2023-03-24T00:35:20;1.30;;;0.73;;
72891;SDS011;61032;50.782;6.818;2023-03-24T00:36:22;1.60;;;0.80;;
72891;SDS011;61032;50.782;6.818;2023-03-24T00:37:24;1.55;;;0.93;;
72891;SDS011;61032;50.782;6.818;2023-03-24T00:38:25;2.35;;;0.80;;
72891;SDS011;61032;50.782;6.818;2023-03-24T00:39:26;2.08;;;1.20;;
72891;SDS011;61032;50.782;6.818;2023-03-24T00:40:27;2.22;;;1.20;;
72891;SDS011;61032;50.782;6.818;2023-03-24T00:41:27;1.83;;;0.90;;
72891;SDS011;61032;50.782;6.818;2023-03-24T00:42:27;1.02;;;0.93;;
72891;SDS011;61032;50.782;6.818;2023-03-24T00:43:28;1.63;;;0.82;;
72891;SDS011;61032;50.782;6.818;2023-03-24T00:44:28;2.05;;;0.93;;
72891;SDS011;61032;50.782;6.818;2023-03-24T00:45:29;4.47;;;1.15;;
72891;SDS011;61032;50.782;6.818;2023-03-24T00:46:33;1.80;;;1.00;;
72891;SDS011;61032;50.782;6.818;2023-03-24T00:47:34;1.92;;;1.10;;
72891;SDS011;61032;50.782;6.818;2023-03-24T00:48:37;1.90;;;1.08;;
72891;SDS011;61032;50.782;6.818;2023-03-24T00:49:40;1.92;;;1.05;;
72891;SDS011;61032;50.782;6.818;2023-03-24T00:50:44;1.60;;;1.13;;
72891;SDS011;61032;50.782;6.818;2023-03-24T00:51:46;2.03;;;1.33;;
72891;SDS011;61032;50.782;6.818;2023-03-24T00:52:47;2.15;;;1.23;;
72891;SDS011;61032;50.782;6.818;2023-03-24T00:53:48;2.30;;;1.52;;
72891;SDS011;61032;50.782;6.818;2023-03-24T00:54:49;1.88;;;1.00;;
72891;SDS011;61032;50.782;6.818;2023-03-24T00:55:51;2.47;;;1.00;;
72891;SDS011;61032;50.782;6.818;2023-03-24T00:56:51;2.42;;;1.13;;
72891;SDS011;61032;50.782;6.818;2023-03-24T00:57:54;2.97;;;1.20;;
72891;SDS011;61032;50.782;6.818;2023-03-24T00:58:55;1.50;;;0.88;;
72891;SDS011;61032;50.782;6.818;2023-03-24T00:59:56;1.48;;;0.90;;
72891;SDS011;61032;50.782;6.818;2023-03-24T01:00:57;2.17;;;1.08;;
72891;SDS011;61032;50.782;6.818;2023-03-24T01:01:57;2.70;;;1.30;;
72891;SDS011;61032;50.782;6.818;2023-03-24T01:02:58;1.92;;;1.02;;
72891;SDS011;61032;50.782;6.818;2023-03-24T01:03:58;1.48;;;0.98;;
72891;SDS011;61032;50.782;6.818;2023-03-24T01:05:00;1.45;;;1.00;;
72891;SDS011;61032;50.782;6.818;2023-03-24T01:06:01;2.08;;;1.30;;
72891;SDS011;61032;50.782;6.818;2023-03-24T01:07:04;2.17;;;1.17;;
72891;SDS011;61032;50.782;6.818;2023-03-24T01:08:07;1.98;;;0.98;;
72891;SDS011;61032;50.782;6.818;2023-03-24T01:09:09;2.30;;;1.30;;
72891;SDS011;61032;50.782;6.818;2023-03-24T01:10:12;1.42;;;1.13;;
72891;SDS011;61032;50.782;6.818;2023-03-24T01:11:14;2.00;;;1.00;;
72891;SDS011;61032;50.782;6.818;2023-03-24T01:12:15;1.50;;;0.90;;
72891;SDS011;61032;50.782;6.818;2023-03-24T01:13:23;1.65;;;1.00;;
72891;SDS011;61032;50.782;6.818;2023-03-24T01:14:25;2.65;;;1.30;;
72891;SDS011;61032;50.782;6.818;2023-03-24T01:15:28;3.72;;;1.40;;
72891;SDS011;61032;50.782;6.818;2023-03-24T01:16:32;2.92;;;1.13;;
72891;SDS011;61032;50.782;6.818;2023-03-24T01:17:32;3.13;;;1.10;;
72891;SDS011;61032;50.782;6.818;2023-03-24T01:18:33;3.20;;;1.20;;
72891;SDS011;61032;50.782;6.818;2023-03-24T01:19:39;1.58;;;0.80;;
72891;SDS011;61032;50.782;6.818;2023-03-24T01:20:41;2.65;;;1.40;;
72891;SDS011;61032;50.782;6.818;2023-03-24T01:21:45;2.72;;;1.15;;
72891;SDS011;61032;50.782;6.818;2023-03-24T01:22:49;1.55;;;0.90;;
72891;SDS011;61032;50.782;6.818;2023-03-24T01:23:52;1.92;;;0.90;;
72891;SDS011;61032;50.782;6.818;2023-03-24T01:24:53;2.10;;;1.25;;
72891;SDS011;61032;50.782;6.818;2023-03-24T01:25:53;1.80;;;1.00;;
72891;SDS011;61032;50.782;6.818;2023-03-24T01:26:54;2.05;;;0.90;;
72891;SDS011;61032;50.782;6.818;2023-03-24T01:27:54;4.22;;;1.40;;
72891;SDS011;61032;50.782;6.818;2023-03-24T01:28:55;2.70;;;1.30;;
72891;SDS011;61032;50.782;6.818;2023-03-24T01:29:59;2.75;;;1.13;;
72891;SDS011;61032;50.782;6.818;2023-03-24T01:31:00;2.45;;;1.00;;
72891;SDS011;61032;50.782;6.818;2023-03-24T01:32:01;3.08;;;1.05;;
72891;SDS011;61032;50.782;6.818;2023-03-24T01:33:01;4.13;;;1.42;;
72891;SDS011;61032;50.782;6.818;2023-03-24T01:34:01;2.53;;;1.30;;
72891;SDS011;61032;50.782;6.818;2023-03-24T01:35:02;1.85;;;1.00;;
72891;SDS011;61032;50.782;6.818;2023-03-24T01:36:03;2.17;;;1.30;;
72891;SDS011;61032;50.782;6.818;2023-03-24T01:37:05;2.15;;;1.20;;
72891;SDS011;61032;50.782;6.818;2023-03-24T01:38:06;2.17;;;1.23;;
72891;SDS011;61032;50.782;6.818;2023-03-24T01:39:08;1.88;;;1.10;;
72891;SDS011;61032;50.782;6.818;2023-03-24T01:40:09;1.63;;;1.10;;
72891;SDS011;61032;50.782;6.818;2023-03-24T01:41:16;2.22;;;1.27;;
72891;SDS011;61032;50.782;6.818;2023-03-24T01:42:17;1.83;;;1.10;;
72891;SDS011;61032;50.782;6.818;2023-03-24T01:43:23;3.55;;;1.35;;
72891;SDS011;61032;50.782;6.818;2023-03-24T01:44:34;2.40;;;1.40;;
72891;SDS011;61032;50.782;6.818;2023-03-24T01:47:05;2.83;;;1.40;;
72891;SDS011;61032;50.782;6.818;2023-03-24T01:49:13;1.67;;;1.33;;
72891;SDS011;61032;50.782;6.818;2023-03-24T01:50:13;3.55;;;2.08;;
72891;SDS011;61032;50.782;6.818;2023-03-24T01:52:21;3.92;;;1.70;;
72891;SDS011;61032;50.782;6.818;2023-03-24T01:53:25;4.10;;;1.60;;
72891;SDS011;61032;50.782;6.818;2023-03-24T01:54:34;1.35;;;1.23;;
72891;SDS011;61032;50.782;6.818;2023-03-24T01:55:39;2.22;;;1.08;;
72891;SDS011;61032;50.782;6.818;2023-03-24T01:56:46;1.88;;;1.35;;
72891;SDS011;61032;50.782;6.818;2023-03-24T01:57:52;2.95;;;1.50;;
72891;SDS011;61032;50.782;6.818;2023-03-24T01:58:58;3.58;;;1.23;;
72891;SDS011;61032;50.782;6.818;2023-03-24T02:00:01;3.60;;;1.38;;
72891;SDS011;61032;50.782;6.818;2023-03-24T02:01:06;2.53;;;1.50;;
72891;SDS011;61032;50.782;6.818;2023-03-24T02:02:07;3.95;;;1.73;;
72891;SDS011;61032;50.782;6.818;2023-03-24T02:03:10;3.92;;;1.50;;
72891;SDS011;61032;50.782;6.818;2023-03-24T02:04:13;3.65;;;1.58;;
72891;SDS011;61032;50.782;6.818;2023-03-24T02:05:15;2.88;;;1.50;;
72891;SDS011;61032;50.782;6.818;2023-03-24T02:06:16;2.13;;;1.25;;
72891;SDS011;61032;50.782;6.818;2023-03-24T02:07:26;2.17;;;1.58;;
72891;SDS011;61032;50.782;6.818;2023-03-24T02:09:30;3.13;;;1.40;;
72891;SDS011;61032;50.782;6.818;2023-03-24T02:10:31;2.30;;;1.60;;
72891;SDS011;61032;50.782;6.818;2023-03-24T02:11:34;2.60;;;1.33;;
72891;SDS011;61032;50.782;6.818;2023-03-24T02:12:36;1.63;;;1.33;;
72891;SDS011;61032;50.782;6.818;2023-03-24T02:13:37;1.77;;;1.33;;
72891;SDS011;61032;50.782;6.818;2023-03-24T02:14:37;2.50;;;1.98;;
72891;SDS011;61032;50.782;6.818;2023-03-24T02:15:40;1.83;;;1.20;;
72891;SDS011;61032;50.782;6.818;2023-03-24T02:20:31;3.45;;;1.55;;
72891;SDS011;61032;50.782;6.818;2023-03-24T02:21:49;3.22;;;1.38;;
72891;SDS011;61032;50.782;6.818;2023-03-24T02:40:44;3.13;;;1.70;;
72891;SDS011;61032;50.782;6.818;2023-03-24T02:41:54;2.08;;;1.40;;
72891;SDS011;61032;50.782;6.818;2023-03-24T02:44:45;2.85;;;1.33;;
72891;SDS011;61032;50.782;6.818;2023-03-24T02:47:02;2.10;;;1.60;;
72891;SDS011;61032;50.782;6.818;2023-03-24T02:48:14;2.83;;;1.42;;
72891;SDS011;61032;50.782;6.818;2023-03-24T02:50:57;1.50;;;1.15;;
72891;SDS011;61032;50.782;6.818;2023-03-24T02:53:18;2.63;;;1.55;;
72891;SDS011;61032;50.782;6.818;2023-03-24T02:54:40;3.97;;;1.70;;
72891;SDS011;61032;50.782;6.818;2023-03-24T02:58:04;2.55;;;1.42;;
72891;SDS011;61032;50.782;6.818;2023-03-24T02:59:14;2.85;;;1.60;;
72891;SDS011;61032;50.782;6.818;2023-03-24T03:00:23;2.40;;;1.52;;
72891;SDS011;61032;50.782;6.818;2023-03-24T03:01:34;3.25;;;1.30;;
72891;SDS011;61032;50.782;6.818;2023-03-24T03:02:41;2.50;;;1.55;;
72891;SDS011;61032;50.782;6.818;2023-03-24T03:03:54;3.15;;;2.13;;
72891;SDS011;61032;50.782;6.818;2023-03-24T03:05:02;2.85;;;1.60;;
72891;SDS011;61032;50.782;6.818;2023-03-24T03:06:09;2.72;;;1.77;;
72891;SDS011;61032;50.782;6.818;2023-03-24T03:07:32;2.53;;;1.85;;
72891;SDS011;61032;50.782;6.818;2023-03-24T03:08:36;1.90;;;1.23;;
72891;SDS011;61032;50.782;6.818;2023-03-24T03:09:40;3.55;;;1.30;;
72891;SDS011;61032;50.782;6.818;2023-03-24T03:10:46;3.35;;;1.90;;
72891;SDS011;61032;50.782;6.818;2023-03-24T03:11:50;2.72;;;1.50;;
72891;SDS011;61032;50.782;6.818;2023-03-24T03:12:54;2.22;;;1.58;;
72891;SDS011;61032;50.782;6.818;2023-03-24T03:13:58;3.40;;;1.63;;
72891;SDS011;61032;50.782;6.818;2023-03-24T03:15:05;2.10;;;1.50;;
72891;SDS011;61032;50.782;6.818;2023-03-24T03:16:10;2.53;;;1.38;;
72891;SDS011;61032;50.782;6.818;2023-03-24T03:17:16;3.47;;;2.03;;
72891;SDS011;61032;50.782;6.818;2023-03-24T03:19:40;4.20;;;1.60;;
72891;SDS011;61032;50.782;6.818;2023-03-24T03:20:46;2.00;;;1.58;;
72891;SDS011;61032;50.782;6.818;2023-03-24T03:21:49;2.22;;;1.73;;
72891;SDS011;61032;50.782;6.818;2023-03-24T03:22:54;2.80;;;1.65;;
72891;SDS011;61032;50.782;6.818;2023-03-24T03:24:06;4.45;;;1.70;;
72891;SDS011;61032;50.782;6.818;2023-03-24T03:25:10;2.83;;;1.60;;
72891;SDS011;61032;50.782;6.818;2023-03-24T03:26:17;2.28;;;1.95;;
72891;SDS011;61032;50.782;6.818;2023-03-24T03:27:28;2.22;;;1.40;;
72891;SDS011;61032;50.782;6.818;2023-03-24T03:28:35;1.73;;;1.23;;
72891;SDS011;61032;50.782;6.818;2023-03-24T03:29:40;2.92;;;1.65;;
72891;SDS011;61032;50.782;6.818;2023-03-24T03:30:56;2.50;;;1.48;;
72891;SDS011;61032;50.782;6.818;2023-03-24T03:32:00;2.50;;;1.83;;
72891;SDS011;61032;50.782;6.818;2023-03-24T03:33:14;2.45;;;1.63;;
72891;SDS011;61032;50.782;6.818;2023-03-24T03:34:39;3.13;;;1.70;;
72891;SDS011;61032;50.782;6.818;2023-03-24T03:35:53;2.22;;;1.42;;
72891;SDS011;61032;50.782;6.818;2023-03-24T03:37:06;2.25;;;1.38;;
72891;SDS011;61032;50.782;6.818;2023-03-24T03:38:14;3.33;;;1.60;;
72891;SDS011;61032;50.782;6.818;2023-03-24T03:39:21;1.73;;;1.30;;
72891;SDS011;61032;50.782;6.818;2023-03-24T03:40:37;2.35;;;1.38;;
72891;SDS011;61032;50.782;6.818;2023-03-24T03:41:42;2.17;;;1.63;;
72891;SDS011;61032;50.782;6.818;2023-03-24T03:42:42;2.17;;;1.50;;
72891;SDS011;61032;50.782;6.818;2023-03-24T03:43:44;1.98;;;1.50;;
72891;SDS011;61032;50.782;6.818;2023-03-24T03:44:47;2.30;;;1.50;;
72891;SDS011;61032;50.782;6.818;2023-03-24T03:45:47;2.15;;;1.20;;
72891;SDS011;61032;50.782;6.818;2023-03-24T03:46:48;2.13;;;1.23;;
72891;SDS011;61032;50.782;6.818;2023-03-24T03:47:48;1.50;;;1.10;;
72891;SDS011;61032;50.782;6.818;2023-03-24T03:48:49;2.15;;;1.50;;
72891;SDS011;61032;50.782;6.818;2023-03-24T03:49:50;2.35;;;1.38;;
72891;SDS011;61032;50.782;6.818;2023-03-24T03:50:51;2.13;;;1.35;;
72891;SDS011;61032;50.782;6.818;2023-03-24T03:51:52;2.40;;;1.63;;
72891;SDS011;61032;50.782;6.818;2023-03-24T03:52:54;2.88;;;1.45;;
72891;SDS011;61032;50.782;6.818;2023-03-24T03:53:57;1.67;;;1.02;;
72891;SDS011;61032;50.782;6.818;2023-03-24T03:55:00;2.72;;;1.70;;
72891;SDS011;61032;50.782;6.818;2023-03-24T03:57:03;3.90;;;1.25;;
72891;SDS011;61032;50.782;6.818;2023-03-24T03:58:04;1.98;;;1.15;;
72891;SDS011;61032;50.782;6.818;2023-03-24T03:59:05;2.83;;;1.55;;
72891;SDS011;61032;50.782;6.818;2023-03-24T04:00:06;2.00;;;1.08;;
72891;SDS011;61032;50.782;6.818;2023-03-24T04:01:12;2.33;;;1.23;;
72891;SDS011;61032;50.782;6.818;2023-03-24T04:03:58;1.80;;;1.40;;
72891;SDS011;61032;50.782;6.818;2023-03-24T04:05:34;2.33;;;1.13;;
72891;SDS011;61032;50.782;6.818;2023-03-24T04:09:10;1.83;;;1.05;;
72891;SDS011;61032;50.782;6.818;2023-03-24T04:10:36;1.75;;;1.02;;
72891;SDS011;61032;50.782;6.818;2023-03-24T04:13:16;1.50;;;1.20;;
72891;SDS011;61032;50.782;6.818;2023-03-24T04:17:52;1.90;;;0.85;;
72891;SDS011;61032;50.782;6.818;2023-03-24T04:20:24;2.72;;;1.45;;
72891;SDS011;61032;50.782;6.818;2023-03-24T04:21:42;1.60;;;1.33;;
72891;SDS011;61032;50.782;6.818;2023-03-24T04:24:36;1.23;;;1.02;;
72891;SDS011;61032;50.782;6.818;2023-03-24T04:27:10;1.58;;;1.00;;
72891;SDS011;61032;50.782;6.818;2023-03-24T04:31:17;1.52;;;0.90;;
72891;SDS011;61032;50.782;6.818;2023-03-24T04:32:31;2.08;;;1.02;;
72891;SDS011;61032;50.782;6.818;2023-03-24T04:34:50;1.23;;;0.77;;
72891;SDS011;61032;50.782;6.818;2023-03-24T04:36:01;1.55;;;0.80;;
72891;SDS011;61032;50.782;6.818;2023-03-24T04:37:10;1.60;;;0.93;;
72891;SDS011;61032;50.782;6.818;2023-03-24T04:38:18;1.88;;;1.10;;
72891;SDS011;61032;50.782;6.818;2023-03-24T04:39:25;2.75;;;0.98;;
72891;SDS011;61032;50.782;6.818;2023-03-24T04:40:29;1.55;;;0.82;;
72891;SDS011;61032;50.782;6.818;2023-03-24T04:41:32;1.48;;;1.00;;
72891;SDS011;61032;50.782;6.818;2023-03-24T04:42:34;2.33;;;1.00;;
72891;SDS011;61032;50.782;6.818;2023-03-24T04:43:38;1.63;;;1.30;;
72891;SDS011;61032;50.782;6.818;2023-03-24T04:44:38;1.40;;;1.00;;
72891;SDS011;61032;50.782;6.818;2023-03-24T04:46:40;2.30;;;1.00;;
72891;SDS011;61032;50.782;6.818;2023-03-24T04:47:49;1.67;;;1.20;;
72891;SDS011;61032;50.782;6.818;2023-03-24T04:48:53;3.03;;;1.20;;
72891;SDS011;61032;50.782;6.818;2023-03-24T04:50:06;1.42;;;1.30;;
72891;SDS011;61032;50.782;6.818;2023-03-24T04:51:10;1.23;;;0.73;;
72891;SDS011;61032;50.782;6.818;2023-03-24T04:52:20;1.27;;;0.77;;
72891;SDS011;61032;50.782;6.818;2023-03-24T04:53:21;2.78;;;1.13;;
72891;SDS011;61032;50.782;6.818;2023-03-24T04:54:22;1.80;;;1.17;;
72891;SDS011;61032;50.782;6.818;2023-03-24T04:56:33;2.05;;;0.90;;
72891;SDS011;61032;50.782;6.818;2023-03-24T04:57:39;1.50;;;1.20;;
72891;SDS011;61032;50.782;6.818;2023-03-24T04:58:40;1.92;;;1.00;;
72891;SDS011;61032;50.782;6.818;2023-03-24T04:59:40;2.17;;;1.20;;
72891;SDS011;61032;50.782;6.818;2023-03-24T05:00:42;5.32;;;1.42;;
72891;SDS011;61032;50.782;6.818;2023-03-24T05:01:43;1.67;;;0.63;;
72891;SDS011;61032;50.782;6.818;2023-03-24T05:02:50;2.75;;;0.75;;
72891;SDS011;61032;50.782;6.818;2023-03-24T05:03:51;3.45;;;0.70;;
72891;SDS011;61032;50.782;6.818;2023-03-24T05:04:52;2.67;;;0.50;;
72891;SDS011;61032;50.782;6.818;2023-03-24T05:05:52;2.58;;;0.82;;
72891;SDS011;61032;50.782;6.818;2023-03-24T05:06:53;2.13;;;0.88;;
72891;SDS011;61032;50.782;6.818;2023-03-24T05:07:54;1.42;;;0.75;;
72891;SDS011;61032;50.782;6.818;2023-03-24T05:08:56;2.13;;;0.98;;
72891;SDS011;61032;50.782;6.818;2023-03-24T05:10:58;2.00;;;0.75;;
72891;SDS011;61032;50.782;6.818;2023-03-24T05:11:58;1.25;;;0.60;;
72891;SDS011;61032;50.782;6.818;2023-03-24T05:12:58;2.17;;;0.70;;
72891;SDS011;61032;50.782;6.818;2023-03-24T05:13:59;3.47;;;0.70;;
72891;SDS011;61032;50.782;6.818;2023-03-24T05:14:59;1.80;;;0.60;;
72891;SDS011;61032;50.782;6.818;2023-03-24T05:16:00;5.60;;;0.82;;
72891;SDS011;61032;50.782;6.818;2023-03-24T05:17:00;1.73;;;0.75;;
72891;SDS011;61032;50.782;6.818;2023-03-24T05:18:01;1.73;;;0.45;;
72891;SDS011;61032;50.782;6.818;2023-03-24T05:19:02;0.93;;;0.63;;
72891;SDS011;61032;50.782;6.818;2023-03-24T05:20:03;1.20;;;0.70;;
72891;SDS011;61032;50.782;6.818;2023-03-24T05:21:09;0.95;;;0.50;;
72891;SDS011;61032;50.782;6.818;2023-03-24T05:22:10;1.77;;;0.73;;
72891;SDS011;61032;50.782;6.818;2023-03-24T05:23:10;5.82;;;1.00;;
72891;SDS011;61032;50.782;6.818;2023-03-24T05:24:11;1.23;;;0.80;;
72891;SDS011;61032;50.782;6.818;2023-03-24T05:25:11;1.58;;;0.90;;
72891;SDS011;61032;50.782;6.818;2023-03-24T05:26:12;2.40;;;0.90;;
72891;SDS011;61032;50.782;6.818;2023-03-24T05:27:12;1.77;;;1.15;;
72891;SDS011;61032;50.782;6.818;2023-03-24T05:28:12;1.65;;;0.85;;
72891;SDS011;61032;50.782;6.818;2023-03-24T05:29:12;3.03;;;1.13;;
72891;SDS011;61032;50.782;6.818;2023-03-24T05:30:13;1.42;;;0.75;;
72891;SDS011;61032;50.782;6.818;2023-03-24T05:31:14;2.50;;;0.77;;
72891;SDS011;61032;50.782;6.818;2023-03-24T05:32:15;2.63;;;0.73;;
72891;SDS011;61032;50.782;6.818;2023-03-24T05:33:15;1.50;;;0.75;;
72891;SDS011;61032;50.782;6.818;2023-03-24T05:34:16;3.08;;;0.90;;
72891;SDS011;61032;50.782;6.818;2023-03-24T05:35:16;1.27;;;0.82;;
72891;SDS011;61032;50.782;6.818;2023-03-24T05:36:17;1.13;;;0.45;;
72891;SDS011;61032;50.782;6.818;2023-03-24T05:37:17;1.65;;;0.60;;
72891;SDS011;61032;50.782;6.818;2023-03-24T05:38:17;1.50;;;0.60;;
72891;SDS011;61032;50.782;6.818;2023-03-24T05:39:18;4.47;;;0.82;;
72891;SDS011;61032;50.782;6.818;2023-03-24T05:40:18;1.65;;;0.82;;
72891;SDS011;61032;50.782;6.818;2023-03-24T05:41:19;1.60;;;0.60;;
72891;SDS011;61032;50.782;6.818;2023-03-24T05:42:21;1.83;;;0.57;;
72891;SDS011;61032;50.782;6.818;2023-03-24T05:44:22;1.40;;;0.43;;
72891;SDS011;61032;50.782;6.818;2023-03-24T05:45:22;1.15;;;0.60;;
72891;SDS011;61032;50.782;6.818;2023-03-24T05:46:24;2.05;;;0.60;;
72891;SDS011;61032;50.782;6.818;2023-03-24T05:47:24;2.47;;;0.43;;
72891;SDS011;61032;50.782;6.818;2023-03-24T05:48:26;2.22;;;0.75;;
72891;SDS011;61032;50.782;6.818;2023-03-24T05:49:26;2.08;;;1.00;;
72891;SDS011;61032;50.782;6.818;2023-03-24T05:50:27;1.75;;;0.73;;
72891;SDS011;61032;50.782;6.818;2023-03-24T05:51:27;0.93;;;0.57;;
72891;SDS011;61032;50.782;6.818;2023-03-24T05:52:27;1.50;;;0.70;;
72891;SDS011;61032;50.782;6.818;2023-03-24T05:53:28;1.55;;;1.08;;
72891;SDS011;61032;50.782;6.818;2023-03-24T05:54:28;2.08;;;1.10;;
72891;SDS011;61032;50.782;6.818;2023-03-24T05:55:29;2.28;;;1.00;;
72891;SDS011;61032;50.782;6.818;2023-03-24T05:56:29;2.53;;;0.93;;
72891;SDS011;61032;50.782;6.818;2023-03-24T05:57:31;2.25;;;1.45;;
72891;SDS011;61032;50.782;6.818;2023-03-24T05:59:34;1.73;;;0.80;;
72891;SDS011;61032;50.782;6.818;2023-03-24T06:00:34;4.43;;;0.90;;
72891;SDS011;61032;50.782;6.818;2023-03-24T06:01:35;1.70;;;0.77;;
72891;SDS011;61032;50.782;6.818;2023-03-24T06:02:35;3.10;;;0.95;;
72891;SDS011;61032;50.782;6.818;2023-03-24T06:03:36;2.45;;;0.73;;
72891;SDS011;61032;50.782;6.818;2023-03-24T06:04:38;2.40;;;1.00;;
72891;SDS011;61032;50.782;6.818;2023-03-24T06:05:44;2.78;;;1.08;;
72891;SDS011;61032;50.782;6.818;2023-03-24T06:06:46;2.00;;;1.20;;
72891;SDS011;61032;50.782;6.818;2023-03-24T06:07:47;2.35;;;1.25;;
72891;SDS011;61032;50.782;6.818;2023-03-24T06:08:47;1.83;;;0.80;;
72891;SDS011;61032;50.782;6.818;2023-03-24T06:09:48;1.70;;;1.13;;
72891;SDS011;61032;50.782;6.818;2023-03-24T06:10:49;2.22;;;1.33;;
72891;SDS011;61032;50.782;6.818;2023-03-24T06:11:52;3.22;;;1.27;;
72891;SDS011;61032;50.782;6.818;2023-03-24T06:12:53;3.83;;;0.90;;
72891;SDS011;61032;50.782;6.818;2023-03-24T06:13:54;1.30;;;0.77;;
72891;SDS011;61032;50.782;6.818;2023-03-24T06:14:58;1.45;;;0.73;;
72891;SDS011;61032;50.782;6.818;2023-03-24T06:15:59;1.60;;;0.80;;
72891;SDS011;61032;50.782;6.818;2023-03-24T06:17:00;2.30;;;1.20;;
72891;SDS011;61032;50.782;6.818;2023-03-24T06:18:00;1.33;;;0.90;;
72891;SDS011;61032;50.782;6.818;2023-03-24T06:19:00;3.85;;;1.20;;
72891;SDS011;61032;50.782;6.818;2023-03-24T06:20:01;1.20;;;0.95;;
72891;SDS011;61032;50.782;6.818;2023-03-24T06:21:05;4.45;;;0.77;;
72891;SDS011;61032;50.782;6.818;2023-03-24T06:22:06;1.38;;;0.60;;
72891;SDS011;61032;50.782;6.818;2023-03-24T06:23:06;2.50;;;0.70;;
72891;SDS011;61032;50.782;6.818;2023-03-24T06:24:06;4.15;;;1.10;;
72891;SDS011;61032;50.782;6.818;2023-03-24T06:25:07;1.30;;;0.82;;
72891;SDS011;61032;50.782;6.818;2023-03-24T06:26:09;2.35;;;1.02;;
72891;SDS011;61032;50.782;6.818;2023-03-24T06:27:11;1.88;;;0.82;;
72891;SDS011;61032;50.782;6.818;2023-03-24T06:28:13;2.08;;;0.80;;
72891;SDS011;61032;50.782;6.818;2023-03-24T06:29:13;2.35;;;0.85;;
72891;SDS011;61032;50.782;6.818;2023-03-24T06:30:17;3.65;;;1.10;;
72891;SDS011;61032;50.782;6.818;2023-03-24T06:31:18;3.15;;;0.90;;
72891;SDS011;61032;50.782;6.818;2023-03-24T06:32:20;1.98;;;0.60;;
72891;SDS011;61032;50.782;6.818;2023-03-24T06:33:20;1.30;;;0.75;;
72891;SDS011;61032;50.782;6.818;2023-03-24T06:34:24;3.05;;;0.73;;
72891;SDS011;61032;50.782;6.818;2023-03-24T06:35:25;3.60;;;0.60;;
72891;SDS011;61032;50.782;6.818;2023-03-24T06:36:25;1.60;;;0.80;;
72891;SDS011;61032;50.782;6.818;2023-03-24T06:37:25;3.60;;;0.95;;
72891;SDS011;61032;50.782;6.818;2023-03-24T06:38:26;5.40;;;0.85;;
72891;SDS011;61032;50.782;6.818;2023-03-24T06:39:26;1.42;;;1.10;;
72891;SDS011;61032;50.782;6.818;2023-03-24T06:40:26;3.22;;;0.85;;
72891;SDS011;61032;50.782;6.818;2023-03-24T06:41:27;2.40;;;0.95;;
72891;SDS011;61032;50.782;6.818;2023-03-24T06:42:27;2.47;;;0.70;;
72891;SDS011;61032;50.782;6.818;2023-03-24T06:43:28;4.50;;;1.10;;
72891;SDS011;61032;50.782;6.818;2023-03-24T06:44:29;3.15;;;0.90;;
72891;SDS011;61032;50.782;6.818;2023-03-24T06:45:29;4.22;;;0.95;;
72891;SDS011;61032;50.782;6.818;2023-03-24T06:46:30;2.63;;;1.00;;
72891;SDS011;61032;50.782;6.818;2023-03-24T06:47:30;3.10;;;0.90;;
72891;SDS011;61032;50.782;6.818;2023-03-24T06:48:30;1.75;;;0.85;;
72891;SDS011;61032;50.782;6.818;2023-03-24T06:49:31;3.20;;;1.25;;
72891;SDS011;61032;50.782;6.818;2023-03-24T06:50:33;4.47;;;0.77;;
72891;SDS011;61032;50.782;6.818;2023-03-24T06:51:34;2.35;;;0.93;;
72891;SDS011;61032;50.782;6.818;2023-03-24T06:52:34;2.95;;;1.15;;
72891;SDS011;61032;50.782;6.818;2023-03-24T06:53:35;4.10;;;0.80;;
72891;SDS011;61032;50.782;6.818;2023-03-24T06:54:36;2.90;;;1.23;;
72891;SDS011;61032;50.782;6.818;2023-03-24T06:55:36;1.63;;;1.48;;
72891;SDS011;61032;50.782;6.818;2023-03-24T06:56:37;2.85;;;1.33;;
72891;SDS011;61032;50.782;6.818;2023-03-24T06:57:37;3.95;;;1.00;;
72891;SDS011;61032;50.782;6.818;2023-03-24T06:58:37;3.70;;;1.00;;
72891;SDS011;61032;50.782;6.818;2023-03-24T06:59:38;1.83;;;0.70;;
72891;SDS011;61032;50.782;6.818;2023-03-24T07:00:38;5.20;;;0.95;;
72891;SDS011;61032;50.782;6.818;2023-03-24T07:01:39;2.00;;;0.90;;
72891;SDS011;61032;50.782;6.818;2023-03-24T07:02:39;3.15;;;0.93;;
72891;SDS011;61032;50.782;6.818;2023-03-24T07:03:41;2.38;;;0.85;;
72891;SDS011;61032;50.782;6.818;2023-03-24T07:04:42;2.67;;;1.45;;
72891;SDS011;61032;50.782;6.818;2023-03-24T07:05:43;2.20;;;1.27;;
72891;SDS011;61032;50.782;6.818;2023-03-24T07:06:44;2.78;;;1.38;;
72891;SDS011;61032;50.782;6.818;2023-03-24T07:07:44;5.13;;;0.77;;
72891;SDS011;61032;50.782;6.818;2023-03-24T07:08:45;4.38;;;0.93;;
72891;SDS011;61032;50.782;6.818;2023-03-24T07:09:46;3.22;;;0.75;;
72891;SDS011;61032;50.782;6.818;2023-03-24T07:10:46;3.25;;;0.82;;
72891;SDS011;61032;50.782;6.818;2023-03-24T07:11:47;3.72;;;1.38;;
72891;SDS011;61032;50.782;6.818;2023-03-24T07:12:47;2.38;;;1.13;;
72891;SDS011;61032;50.782;6.818;2023-03-24T07:13:47;3.28;;;0.90;;
72891;SDS011;61032;50.782;6.818;2023-03-24T07:14:48;3.10;;;1.02;;
72891;SDS011;61032;50.782;6.818;2023-03-24T07:15:48;7.75;;;1.90;;
72891;SDS011;61032;50.782;6.818;2023-03-24T07:16:48;2.35;;;0.93;;
72891;SDS011;61032;50.782;6.818;2023-03-24T07:17:49;2.83;;;1.20;;
72891;SDS011;61032;50.782;6.818;2023-03-24T07:18:49;4.70;;;1.02;;
72891;SDS011;61032;50.782;6.818;2023-03-24T07:19:49;2.05;;;0.93;;
72891;SDS011;61032;50.782;6.818;2023-03-24T07:20:50;3.28;;;1.35;;